createdAt,value
2023-04-25T04:02:40.266Z,99854.00
2023-04-25T04:05:10.371Z,99844.00
2023-04-25T04:07:40.841Z,99849.00
2023-04-25T04:10:10.144Z,99850.00
2023-04-25T04:12:38.600Z,99856.00
2023-04-25T04:15:09.948Z,99862.00
2023-04-25T04:17:39.901Z,99865.00
2023-04-25T04:20:09.625Z,99851.00
2023-04-25T04:22:38.199Z,99866.00
2023-04-25T04:25:08.071Z,99869.00
2023-04-25T04:27:36.435Z,99862.00
2023-04-25T04:30:05.895Z,99861.00
2023-04-25T04:32:35.593Z,99862.00
2023-04-25T04:35:07.910Z,99872.00
2023-04-25T04:37:36.169Z,99867.00
2023-04-25T04:40:06.945Z,99867.00
2023-04-25T04:42:35.236Z,99863.00
2023-04-25T04:45:03.991Z,99872.00
2023-04-25T04:47:33.472Z,99873.00
2023-04-25T04:50:01.865Z,99872.00
2023-04-25T04:52:31.542Z,99881.00
2023-04-25T04:54:59.740Z,99883.00
2023-04-25T04:57:28.051Z,99883.00
2023-04-25T04:59:56.340Z,99873.00
2023-04-25T05:02:24.628Z,99890.00
2023-04-25T05:04:53.421Z,99874.00
2023-04-25T05:07:22.005Z,99887.00
2023-04-25T05:09:51.516Z,99883.00
2023-04-25T05:12:19.941Z,99845.00
2023-04-25T05:14:48.119Z,99877.00
2023-04-25T05:17:16.331Z,99886.00
2023-04-25T05:19:44.509Z,99885.00
2023-04-25T05:22:12.750Z,99885.00
2023-04-25T05:24:40.952Z,99894.00
2023-04-25T05:27:10.537Z,99896.00
2023-04-25T05:29:38.756Z,99893.00
2023-04-25T05:32:08.646Z,99896.00
2023-04-25T05:34:37.754Z,99870.00
2023-04-25T05:37:06.037Z,99892.00
2023-04-25T05:39:34.441Z,99888.00
2023-04-25T05:42:04.776Z,99896.00
2023-04-25T05:44:34.414Z,99881.00
2023-04-25T05:47:02.637Z,99903.00
2023-04-25T05:49:30.977Z,99904.00
2023-04-25T05:51:59.165Z,99909.00
2023-04-25T05:54:27.332Z,99907.00
2023-04-25T05:56:55.538Z,99908.00
2023-04-25T05:59:23.772Z,99908.00
2023-04-25T06:01:53.661Z,99904.00
2023-04-25T06:04:22.038Z,99921.00
2023-04-25T06:06:51.012Z,99925.00
2023-04-25T06:09:19.282Z,99911.00
2023-04-25T06:11:47.438Z,99926.00
2023-04-25T06:14:15.596Z,99922.00
2023-04-25T06:16:43.860Z,99923.00
2023-04-25T06:19:13.778Z,99926.00
2023-04-25T06:21:42.051Z,99932.00
2023-04-25T06:24:10.364Z,99915.00
2023-04-25T06:26:38.646Z,99931.00
2023-04-25T06:29:06.809Z,99922.00
2023-04-25T06:31:34.976Z,99928.00
2023-04-25T06:34:03.433Z,99925.00
2023-04-25T06:36:32.914Z,99925.00
2023-04-25T06:39:01.326Z,99919.00
2023-04-25T06:41:29.542Z,99913.00
2023-04-25T06:43:57.681Z,99927.00
2023-04-25T06:46:26.012Z,99929.00
2023-04-25T06:48:54.165Z,99926.00
2023-04-25T06:51:24.179Z,99933.00
2023-04-25T06:53:55.031Z,99935.00
2023-04-25T06:56:24.203Z,99928.00
2023-04-25T06:58:52.591Z,99927.00
2023-04-25T07:01:22.077Z,99935.00
2023-04-25T07:03:50.480Z,99935.00
2023-04-25T07:06:19.071Z,99930.00
2023-04-25T07:08:47.276Z,99937.00
2023-04-25T07:11:16.903Z,99938.00
2023-04-25T07:13:45.145Z,99938.00
2023-04-25T07:16:13.409Z,99945.00
2023-04-25T07:18:41.612Z,99948.00
2023-04-25T07:21:10.034Z,99947.00
2023-04-25T07:23:38.441Z,99948.00
2023-04-25T07:26:06.764Z,99958.00
2023-04-25T07:28:36.317Z,99957.00
2023-04-25T07:31:04.719Z,99963.00
2023-04-25T07:33:32.992Z,99956.00
2023-04-25T07:36:01.230Z,99965.00
2023-04-25T07:38:29.403Z,99961.00
2023-04-25T07:40:57.583Z,99961.00
2023-04-25T07:43:25.824Z,99969.00
2023-04-25T07:45:55.382Z,99972.00
2023-04-25T07:48:24.278Z,99988.00
2023-04-25T07:50:52.405Z,99993.00
2023-04-25T07:53:20.527Z,99992.00
2023-04-25T07:55:48.769Z,99991.00
2023-04-25T07:58:21.998Z,99988.00
2023-04-25T08:00:51.043Z,99985.00
2023-04-25T08:03:20.825Z,99995.00
2023-04-25T08:05:49.616Z,100002.00
2023-04-25T08:08:17.998Z,99997.00
2023-04-25T08:10:46.172Z,99997.00
2023-04-25T08:13:14.424Z,99992.00
2023-04-25T08:15:43.127Z,100007.00
2023-04-25T08:18:11.425Z,100000.00
2023-04-25T08:20:41.518Z,100002.00
2023-04-25T08:23:10.023Z,100009.00
2023-04-25T08:25:38.302Z,100012.00
2023-04-25T08:28:07.917Z,100016.00
2023-04-25T08:30:36.164Z,100028.00
2023-04-25T08:33:04.417Z,100026.00
2023-04-25T08:35:34.029Z,100030.00
2023-04-25T08:38:03.908Z,100029.00
2023-04-25T08:40:39.802Z,100033.00
2023-04-25T08:43:12.371Z,100027.00
2023-04-25T08:45:44.370Z,100040.00
2023-04-25T08:48:14.890Z,100048.00
2023-04-25T08:50:52.687Z,100045.00
2023-04-25T08:53:28.549Z,100049.00
2023-04-25T08:55:59.363Z,100043.00
2023-04-25T08:58:28.863Z,100048.00
2023-04-25T09:00:57.201Z,100057.00
2023-04-25T09:03:25.453Z,100058.00
2023-04-25T09:05:54.779Z,100057.00
2023-04-25T09:08:24.352Z,100063.00
2023-04-25T09:10:52.569Z,100074.00
2023-04-25T09:13:29.155Z,100068.00
2023-04-25T09:15:59.588Z,100078.00
2023-04-25T09:18:30.556Z,100076.00
2023-04-25T09:21:13.023Z,100077.00
2023-04-25T09:23:48.205Z,100069.00
2023-04-25T09:26:17.874Z,100086.00
2023-04-25T09:28:46.814Z,100087.00
2023-04-25T09:31:24.239Z,100096.00
2023-04-25T09:34:00.520Z,100091.00
2023-04-25T09:36:32.785Z,100097.00
2023-04-25T09:39:04.508Z,100084.00
2023-04-25T09:41:35.749Z,100105.00
2023-04-25T09:44:04.494Z,100102.00
2023-04-25T09:46:37.440Z,100095.00
2023-04-25T09:49:09.829Z,100107.00
2023-04-25T09:51:38.182Z,100106.00
2023-04-25T09:54:07.913Z,100096.00
2023-04-25T09:56:39.196Z,100100.00
2023-04-25T09:59:09.698Z,100113.00
2023-04-25T10:01:42.724Z,100099.00
2023-04-25T10:04:14.072Z,100101.00
2023-04-25T10:06:45.269Z,100114.00
2023-04-25T10:09:16.625Z,100113.00
2023-04-25T10:11:46.685Z,100105.00
2023-04-25T10:14:16.636Z,100099.00
2023-04-25T10:16:46.080Z,100085.00
2023-04-25T10:19:15.190Z,100114.00
2023-04-25T10:21:57.598Z,100115.00
2023-04-25T10:24:29.242Z,100117.00
2023-04-25T10:27:00.195Z,100114.00
2023-04-25T10:29:29.402Z,100117.00
2023-04-25T10:31:58.871Z,100123.00
2023-04-25T10:34:41.571Z,100123.00
2023-04-25T10:37:12.289Z,100126.00
2023-04-25T10:39:43.915Z,100126.00
2023-04-25T10:42:12.147Z,100135.00
2023-04-25T10:44:41.228Z,100130.00
2023-04-25T10:47:11.633Z,100113.00
2023-04-25T10:49:44.324Z,100128.00
2023-04-25T10:52:26.397Z,100136.00
2023-04-25T10:54:58.308Z,100145.00
2023-04-25T10:57:35.247Z,100147.00
2023-04-25T11:00:11.875Z,100144.00
2023-04-25T11:02:44.078Z,100144.00
2023-04-25T11:05:12.942Z,100139.00
2023-04-25T11:08:00.053Z,100140.00
2023-04-25T11:10:36.181Z,100147.00
2023-04-25T11:13:05.367Z,100148.00
2023-04-25T11:15:33.737Z,100145.00
2023-04-25T11:21:35.023Z,100155.00
2023-04-25T11:24:04.077Z,100167.00
2023-04-25T11:26:34.252Z,100165.00
2023-04-25T11:29:02.697Z,100167.00
2023-04-25T11:31:32.036Z,100165.00
2023-04-25T11:34:00.868Z,100165.00
2023-04-25T11:36:29.342Z,100169.00
2023-04-25T11:38:57.917Z,100167.00
2023-04-25T11:41:29.254Z,100174.00
2023-04-25T11:43:59.098Z,100183.00
2023-04-25T11:46:27.318Z,100187.00
2023-04-25T11:48:59.502Z,100189.00
2023-04-25T11:51:28.026Z,100199.00
2023-04-25T11:53:56.198Z,100185.00
2023-04-25T11:56:25.272Z,100203.00
2023-04-25T11:59:03.603Z,100164.00
2023-04-25T12:01:35.632Z,100196.00
2023-04-25T12:04:16.514Z,100208.00
2023-04-25T12:06:49.176Z,100197.00
2023-04-25T12:09:20.348Z,100204.00
2023-04-25T12:11:51.047Z,100218.00
2023-04-25T12:14:29.738Z,100217.00
2023-04-25T12:16:59.781Z,100203.00
2023-04-25T12:19:33.647Z,100216.00
2023-04-25T12:22:04.023Z,100220.00
2023-04-25T12:24:38.847Z,100225.00
2023-04-25T12:27:09.053Z,100218.00
2023-04-25T12:29:49.506Z,100209.00
2023-04-25T12:32:18.707Z,100203.00
2023-04-25T12:34:47.320Z,100226.00
2023-04-25T12:37:16.584Z,100229.00
2023-04-25T12:39:44.931Z,100215.00
2023-04-25T12:42:14.295Z,100219.00
2023-04-25T12:44:43.860Z,100226.00
2023-04-25T12:47:12.187Z,100216.00
2023-04-25T12:49:40.484Z,100214.00
2023-04-25T12:52:08.710Z,100223.00
2023-04-25T12:54:36.871Z,100221.00
2023-04-25T12:57:05.619Z,100220.00
2023-04-25T12:59:33.926Z,100210.00
2023-04-25T13:02:04.335Z,100226.00
2023-04-25T13:04:32.716Z,100236.00
2023-04-25T13:07:00.912Z,100229.00
2023-04-25T13:09:29.212Z,100236.00
2023-04-25T13:11:59.369Z,100239.00
2023-04-25T13:14:27.726Z,100236.00
2023-04-25T13:16:56.430Z,100232.00
2023-04-25T13:19:26.620Z,100242.00
2023-04-25T13:21:54.784Z,100230.00
2023-04-25T13:24:22.989Z,100231.00
2023-04-25T13:26:51.472Z,100234.00
2023-04-25T13:29:19.610Z,100235.00
2023-04-25T13:31:47.899Z,100240.00
2023-04-25T13:34:16.095Z,100249.00
2023-04-25T13:36:46.437Z,100246.00
2023-04-25T13:39:15.397Z,100249.00
2023-04-25T13:41:43.549Z,100246.00
2023-04-25T13:44:12.280Z,100258.00
2023-04-25T13:46:46.942Z,100251.00
2023-04-25T13:49:16.467Z,100252.00
2023-04-25T13:51:46.125Z,100237.00
2023-04-25T13:54:14.349Z,100253.00
2023-04-25T13:56:44.011Z,100254.00
2023-04-25T13:59:12.784Z,100259.00
2023-04-25T14:01:41.253Z,100271.00
2023-04-25T14:04:09.534Z,100273.00
2023-04-25T14:06:37.999Z,100277.00
2023-04-25T14:09:08.171Z,100275.00
2023-04-25T14:11:36.478Z,100280.00
2023-04-25T14:14:05.406Z,100268.00
2023-04-25T14:16:33.915Z,100268.00
2023-04-25T14:19:02.212Z,100272.00
2023-04-25T14:21:33.362Z,100258.00
2023-04-25T14:24:01.632Z,100275.00
2023-04-25T14:26:31.239Z,100287.00
2023-04-25T14:28:59.519Z,100280.00
2023-04-25T14:31:28.089Z,100293.00
2023-04-25T14:33:59.277Z,100290.00
2023-04-25T14:36:28.379Z,100296.00
2023-04-25T14:38:56.935Z,100294.00
2023-04-25T14:41:27.457Z,100303.00
2023-04-25T14:43:57.837Z,100304.00
2023-04-25T14:46:26.671Z,100289.00
2023-04-25T14:48:56.725Z,100300.00
2023-04-25T14:51:25.459Z,100292.00
2023-04-25T14:53:53.908Z,100297.00
2023-04-25T14:56:22.314Z,100307.00
2023-04-25T14:58:51.827Z,100314.00
2023-04-25T15:01:22.866Z,100316.00
2023-04-25T15:03:52.829Z,100311.00
2023-04-25T15:06:21.425Z,100316.00
2023-04-25T15:08:49.643Z,100311.00
2023-04-25T15:11:17.936Z,100314.00
2023-04-25T15:13:46.190Z,100313.00
2023-04-25T15:16:14.454Z,100321.00
2023-04-25T15:18:44.204Z,100311.00
2023-04-25T15:21:12.483Z,100317.00
2023-04-25T15:23:40.665Z,100311.00
2023-04-25T15:26:09.487Z,100309.00
2023-04-25T15:28:37.640Z,100306.00
2023-04-25T15:31:06.449Z,100312.00
2023-04-25T15:33:34.802Z,100313.00
2023-04-25T15:36:05.111Z,100306.00
2023-04-25T15:38:33.282Z,100308.00
2023-04-25T15:41:01.563Z,100319.00
2023-04-25T15:43:29.773Z,100309.00
2023-04-25T15:45:58.456Z,100308.00
2023-04-25T15:48:26.694Z,100316.00
2023-04-25T15:50:54.894Z,100318.00
2023-04-25T15:53:25.454Z,100324.00
2023-04-25T15:55:53.629Z,100319.00
2023-04-25T15:58:22.236Z,100315.00
2023-04-25T16:00:51.697Z,100303.00
2023-04-25T16:03:20.018Z,100312.00
2023-04-25T16:05:48.268Z,100335.00
2023-04-25T16:08:16.777Z,100335.00
2023-04-25T16:10:46.468Z,100330.00
2023-04-25T16:13:14.708Z,100330.00
2023-04-25T16:15:42.943Z,100331.00
2023-04-25T16:18:11.090Z,100339.00
2023-04-25T16:20:39.312Z,100330.00
2023-04-25T16:23:07.490Z,100326.00
2023-04-25T16:25:36.233Z,100338.00
2023-04-25T16:28:05.846Z,100320.00
2023-04-25T16:30:34.024Z,100336.00
2023-04-25T16:33:02.562Z,100319.00
2023-04-25T16:35:32.482Z,100341.00
2023-04-25T16:38:00.744Z,100336.00
2023-04-25T16:40:28.989Z,100344.00
2023-04-25T16:42:57.657Z,100340.00
2023-04-25T16:45:28.074Z,100332.00
2023-04-25T16:47:56.285Z,100342.00
2023-04-25T16:50:25.520Z,100348.00
2023-04-25T16:52:54.472Z,100350.00
2023-04-25T16:55:22.783Z,100351.00
2023-04-25T16:57:51.040Z,100345.00
2023-04-25T17:00:20.133Z,100352.00
2023-04-25T17:02:51.378Z,100355.00
2023-04-25T17:05:19.795Z,100348.00
2023-04-25T17:07:48.003Z,100356.00
2023-04-25T17:10:16.239Z,100342.00
2023-04-25T17:12:44.400Z,100368.00
2023-04-25T17:15:12.870Z,100347.00
2023-04-25T17:17:41.302Z,100356.00
2023-04-25T17:20:13.640Z,100356.00
2023-04-25T17:22:41.974Z,100358.00
2023-04-25T17:25:11.364Z,100357.00
2023-04-25T17:27:39.595Z,100355.00
2023-04-25T17:30:09.896Z,100361.00
2023-04-25T17:32:38.145Z,100377.00
2023-04-25T17:35:07.449Z,100369.00
2023-04-25T17:37:37.074Z,100380.00
2023-04-25T17:40:06.724Z,100370.00
2023-04-25T17:42:34.848Z,100373.00
2023-04-25T17:45:03.535Z,100374.00
2023-04-25T17:47:32.006Z,100385.00
2023-04-25T17:50:00.352Z,100381.00
2023-04-25T17:52:29.156Z,100383.00
2023-04-25T17:54:58.671Z,100380.00
2023-04-25T17:57:27.226Z,100391.00
2023-04-25T17:59:57.743Z,100381.00
2023-04-25T18:02:27.762Z,100373.00
2023-04-25T18:04:56.998Z,100387.00
2023-04-25T18:07:25.430Z,100391.00
2023-04-25T18:09:53.637Z,100391.00
2023-04-25T18:12:23.316Z,100392.00
2023-04-25T18:14:51.486Z,100399.00
2023-04-25T18:17:20.897Z,100401.00
2023-04-25T18:19:50.947Z,100395.00
2023-04-25T18:22:19.527Z,100404.00
2023-04-25T18:24:47.837Z,100412.00
2023-04-25T18:27:16.143Z,100406.00
2023-04-25T18:29:45.760Z,100411.00
2023-04-25T18:32:14.627Z,100412.00
2023-04-25T18:34:46.047Z,100418.00
2023-04-25T18:37:14.312Z,100415.00
2023-04-25T18:39:42.997Z,100421.00
2023-04-25T18:42:11.757Z,100425.00
2023-04-25T18:44:40.914Z,100431.00
2023-04-25T18:47:12.952Z,100439.00
2023-04-25T18:49:41.464Z,100434.00
2023-04-25T18:52:12.261Z,100446.00
2023-04-25T18:54:40.961Z,100444.00
2023-04-25T18:57:09.356Z,100449.00
2023-04-25T18:59:37.557Z,100445.00
2023-04-25T19:02:05.927Z,100455.00
2023-04-25T19:04:36.200Z,100460.00
2023-04-25T19:07:04.529Z,100463.00
2023-04-25T19:09:33.627Z,100468.00
2023-04-25T19:12:03.184Z,100473.00
2023-04-25T19:14:33.702Z,100476.00
2023-04-25T19:17:02.081Z,100472.00
2023-04-25T19:19:30.373Z,100476.00
2023-04-25T19:22:00.783Z,100471.00
2023-04-25T19:24:29.003Z,100474.00
2023-04-25T19:26:57.208Z,100462.00
2023-04-25T19:29:25.454Z,100462.00
2023-04-25T19:31:54.503Z,100462.00
2023-04-25T19:34:23.336Z,100470.00
2023-04-25T19:36:53.988Z,100473.00
2023-04-25T19:39:23.917Z,100474.00
2023-04-25T19:41:52.141Z,100476.00
2023-04-25T19:44:20.645Z,100472.00
2023-04-25T19:46:49.604Z,100479.00
2023-04-25T19:49:17.880Z,100478.00
2023-04-25T19:51:47.978Z,100480.00
2023-04-25T19:54:16.151Z,100471.00
2023-04-25T19:56:45.786Z,100482.00
2023-04-25T19:59:14.011Z,100486.00
2023-04-25T20:01:42.632Z,100485.00
2023-04-25T20:04:10.847Z,100488.00
2023-04-25T20:06:39.313Z,100492.00
2023-04-25T20:09:09.422Z,100491.00
2023-04-25T20:11:37.712Z,100489.00
2023-04-25T20:14:07.354Z,100484.00
2023-04-25T20:16:36.312Z,100490.00
2023-04-25T20:19:05.099Z,100489.00
2023-04-25T20:21:34.228Z,100491.00
2023-04-25T20:24:02.718Z,100483.00
2023-04-25T20:26:33.888Z,100491.00
2023-04-25T20:29:02.194Z,100489.00
2023-04-25T20:31:32.671Z,100494.00
2023-04-25T20:34:01.229Z,100493.00
2023-04-25T20:36:29.570Z,100491.00
2023-04-25T20:38:58.070Z,100493.00
2023-04-25T20:41:26.246Z,100495.00
2023-04-25T20:43:54.737Z,100489.00
2023-04-25T20:46:23.042Z,100490.00
2023-04-25T20:48:53.325Z,100488.00
2023-04-25T20:51:22.902Z,100495.00
2023-04-25T20:53:51.278Z,100497.00
2023-04-25T20:56:20.564Z,100496.00
2023-04-25T20:58:49.260Z,100503.00
